sensor_id;sensor_type;location;lat;lon;timestamp;pressure;altitude;pressure_sealevel;temperature;humidity
54329;BME280;40710;51.120;13.136;2022-08-18T00:02:23;98850.34;;;25.07;46.44
54329;BME280;40710;51.120;13.136;2022-08-18T00:04:49;98842.84;;;25.02;46.59
54329;BME280;40710;51.120;13.136;2022-08-18T00:07:18;98842.94;;;24.94;46.70
54329;BME280;40710;51.120;13.136;2022-08-18T00:09:42;98844.44;;;24.97;46.91
54329;BME280;40710;51.120;13.136;2022-08-18T00:12:24;98832.53;;;25.36;45.95
54329;BME280;40710;51.120;13.136;2022-08-18T00:14:49;98838.63;;;25.66;45.50
54329;BME280;40710;51.120;13.136;2022-08-18T00:17:15;98831.44;;;25.52;45.52
54329;BME280;40710;51.120;13.136;2022-08-18T00:19:39;98833.88;;;25.46;45.89
54329;BME280;40710;51.120;13.136;2022-08-18T00:22:04;98832.44;;;25.29;46.24
54329;BME280;40710;51.120;13.136;2022-08-18T00:24:29;98829.56;;;25.31;46.24
54329;BME280;40710;51.120;13.136;2022-08-18T00:26:54;98832.81;;;25.26;46.20
54329;BME280;40710;51.120;13.136;2022-08-18T00:29:18;98832.31;;;25.22;46.64
54329;BME280;40710;51.120;13.136;2022-08-18T00:31:43;98828.13;;;24.98;46.98
54329;BME280;40710;51.120;13.136;2022-08-18T00:34:07;98827.19;;;25.06;46.80
54329;BME280;40710;51.120;13.136;2022-08-18T00:36:31;98836.19;;;24.98;46.86
54329;BME280;40710;51.120;13.136;2022-08-18T00:38:57;98835.09;;;24.78;47.47
54329;BME280;40710;51.120;13.136;2022-08-18T00:41:22;98838.34;;;24.58;47.93
54329;BME280;40710;51.120;13.136;2022-08-18T00:43:50;98832.50;;;24.69;47.57
54329;BME280;40710;51.120;13.136;2022-08-18T00:46:20;98842.06;;;24.49;48.27
54329;BME280;40710;51.120;13.136;2022-08-18T00:48:46;98842.66;;;24.59;48.11
54329;BME280;40710;51.120;13.136;2022-08-18T00:51:16;98843.69;;;24.73;47.97
54329;BME280;40710;51.120;13.136;2022-08-18T00:53:50;98845.84;;;24.78;47.93
54329;BME280;40710;51.120;13.136;2022-08-18T00:56:23;98840.38;;;24.71;47.92
54329;BME280;40710;51.120;13.136;2022-08-18T00:58:52;98858.50;;;24.54;48.32
54329;BME280;40710;51.120;13.136;2022-08-18T01:01:21;98851.44;;;24.53;48.28
54329;BME280;40710;51.120;13.136;2022-08-18T01:03:47;98859.81;;;24.20;49.08
54329;BME280;40710;51.120;13.136;2022-08-18T01:08:53;98858.59;;;24.23;49.20
54329;BME280;40710;51.120;13.136;2022-08-18T01:11:19;98873.03;;;24.45;48.62
54329;BME280;40710;51.120;13.136;2022-08-18T01:13:43;98870.03;;;24.25;49.13
54329;BME280;40710;51.120;13.136;2022-08-18T01:16:07;98859.47;;;24.23;49.20
54329;BME280;40710;51.120;13.136;2022-08-18T01:18:51;98856.22;;;24.28;48.95
54329;BME280;40710;51.120;13.136;2022-08-18T01:21:39;98855.38;;;24.27;48.85
54329;BME280;40710;51.120;13.136;2022-08-18T01:24:13;98856.97;;;24.22;49.04
54329;BME280;40710;51.120;13.136;2022-08-18T01:26:39;98857.66;;;24.39;48.47
54329;BME280;40710;51.120;13.136;2022-08-18T01:29:12;98854.00;;;24.31;48.38
54329;BME280;40710;51.120;13.136;2022-08-18T01:31:41;98842.47;;;24.46;48.24
54329;BME280;40710;51.120;13.136;2022-08-18T01:34:09;98847.97;;;24.29;48.68
54329;BME280;40710;51.120;13.136;2022-08-18T01:36:36;98850.50;;;24.31;48.65
54329;BME280;40710;51.120;13.136;2022-08-18T01:39:03;98843.13;;;24.48;48.40
54329;BME280;40710;51.120;13.136;2022-08-18T01:41:27;98847.91;;;24.38;48.68
54329;BME280;40710;51.120;13.136;2022-08-18T01:43:52;98844.28;;;24.45;48.61
54329;BME280;40710;51.120;13.136;2022-08-18T01:46:19;98847.44;;;24.34;48.42
54329;BME280;40710;51.120;13.136;2022-08-18T01:48:43;98838.88;;;24.53;48.44
54329;BME280;40710;51.120;13.136;2022-08-18T01:51:09;98839.22;;;24.50;48.48
54329;BME280;40710;51.120;13.136;2022-08-18T01:53:34;98842.06;;;24.49;48.29
54329;BME280;40710;51.120;13.136;2022-08-18T01:55:59;98824.97;;;24.65;47.79
54329;BME280;40710;51.120;13.136;2022-08-18T01:58:24;98828.69;;;24.79;47.52
54329;BME280;40710;51.120;13.136;2022-08-18T02:00:51;98826.28;;;24.69;47.71
54329;BME280;40710;51.120;13.136;2022-08-18T02:03:15;98846.00;;;23.62;49.95
54329;BME280;40710;51.120;13.136;2022-08-18T02:05:44;98843.91;;;24.19;49.18
54329;BME280;40710;51.120;13.136;2022-08-18T02:08:10;98832.09;;;24.43;48.26
54329;BME280;40710;51.120;13.136;2022-08-18T02:10:35;98830.00;;;24.83;47.43
54329;BME280;40710;51.120;13.136;2022-08-18T02:13:00;98835.66;;;24.88;47.20
54329;BME280;40710;51.120;13.136;2022-08-18T02:15:24;98831.84;;;24.67;47.74
54329;BME280;40710;51.120;13.136;2022-08-18T02:17:48;98839.06;;;24.14;48.39
54329;BME280;40710;51.120;13.136;2022-08-18T02:20:17;98847.47;;;23.65;49.70
54329;BME280;40710;51.120;13.136;2022-08-18T02:22:42;98841.94;;;23.66;50.03
54329;BME280;40710;51.120;13.136;2022-08-18T02:25:08;98851.31;;;23.70;49.94
54329;BME280;40710;51.120;13.136;2022-08-18T02:27:33;98848.16;;;23.67;49.87
54329;BME280;40710;51.120;13.136;2022-08-18T02:29:59;98854.03;;;23.62;49.80
54329;BME280;40710;51.120;13.136;2022-08-18T02:32:23;98849.63;;;23.46;50.49
54329;BME280;40710;51.120;13.136;2022-08-18T02:34:47;98857.97;;;23.20;50.98
54329;BME280;40710;51.120;13.136;2022-08-18T02:37:12;98848.97;;;23.13;51.53
54329;BME280;40710;51.120;13.136;2022-08-18T02:39:37;98848.41;;;23.17;51.44
54329;BME280;40710;51.120;13.136;2022-08-18T02:42:04;98840.22;;;23.19;51.57
54329;BME280;40710;51.120;13.136;2022-08-18T02:44:28;98840.69;;;23.22;51.41
54329;BME280;40710;51.120;13.136;2022-08-18T02:46:53;98838.66;;;23.25;51.63
54329;BME280;40710;51.120;13.136;2022-08-18T02:49:17;98837.38;;;23.12;51.85
54329;BME280;40710;51.120;13.136;2022-08-18T02:51:43;98829.34;;;23.12;52.02
54329;BME280;40710;51.120;13.136;2022-08-18T02:54:07;98827.88;;;23.10;51.95
54329;BME280;40710;51.120;13.136;2022-08-18T02:56:34;98823.91;;;22.89;52.50
54329;BME280;40710;51.120;13.136;2022-08-18T02:59:04;98822.69;;;23.08;51.85
54329;BME280;40710;51.120;13.136;2022-08-18T03:01:31;98818.81;;;23.11;51.88
54329;BME280;40710;51.120;13.136;2022-08-18T03:03:57;98815.28;;;23.10;51.94
54329;BME280;40710;51.120;13.136;2022-08-18T03:06:23;98821.28;;;23.20;51.95
54329;BME280;40710;51.120;13.136;2022-08-18T03:08:48;98819.00;;;23.09;51.93
54329;BME280;40710;51.120;13.136;2022-08-18T03:11:15;98820.31;;;23.13;51.84
54329;BME280;40710;51.120;13.136;2022-08-18T03:13:39;98821.19;;;22.97;51.75
54329;BME280;40710;51.120;13.136;2022-08-18T03:16:04;98820.72;;;22.94;52.16
54329;BME280;40710;51.120;13.136;2022-08-18T03:18:28;98820.56;;;22.87;52.17
54329;BME280;40710;51.120;13.136;2022-08-18T03:20:53;98826.00;;;23.10;51.55
54329;BME280;40710;51.120;13.136;2022-08-18T03:23:17;98822.88;;;22.98;51.61
54329;BME280;40710;51.120;13.136;2022-08-18T03:25:46;98823.72;;;23.07;51.54
54329;BME280;40710;51.120;13.136;2022-08-18T03:28:11;98815.91;;;23.20;51.17
54329;BME280;40710;51.120;13.136;2022-08-18T03:30:36;98821.41;;;23.27;50.81
54329;BME280;40710;51.120;13.136;2022-08-18T03:33:00;98818.91;;;23.26;51.16
54329;BME280;40710;51.120;13.136;2022-08-18T03:35:24;98813.16;;;23.37;50.84
54329;BME280;40710;51.120;13.136;2022-08-18T03:37:49;98808.13;;;23.34;50.93
54329;BME280;40710;51.120;13.136;2022-08-18T03:40:14;98809.06;;;23.49;50.56
54329;BME280;40710;51.120;13.136;2022-08-18T03:42:38;98814.63;;;23.39;51.07
54329;BME280;40710;51.120;13.136;2022-08-18T03:45:03;98816.09;;;23.19;51.31
54329;BME280;40710;51.120;13.136;2022-08-18T03:47:29;98813.16;;;23.06;52.02
54329;BME280;40710;51.120;13.136;2022-08-18T03:49:55;98818.59;;;23.20;51.64
54329;BME280;40710;51.120;13.136;2022-08-18T03:52:19;98817.72;;;23.28;51.36
54329;BME280;40710;51.120;13.136;2022-08-18T03:54:43;98828.63;;;23.27;51.46
54329;BME280;40710;51.120;13.136;2022-08-18T03:57:09;98822.66;;;23.16;51.80
54329;BME280;40710;51.120;13.136;2022-08-18T03:59:34;98815.09;;;23.20;51.54
54329;BME280;40710;51.120;13.136;2022-08-18T04:02:00;98816.81;;;23.13;51.52
54329;BME280;40710;51.120;13.136;2022-08-18T04:04:27;98817.88;;;22.95;51.93
54329;BME280;40710;51.120;13.136;2022-08-18T04:06:54;98806.16;;;23.28;51.24
54329;BME280;40710;51.120;13.136;2022-08-18T04:09:22;98818.69;;;23.35;51.04
54329;BME280;40710;51.120;13.136;2022-08-18T04:11:47;98816.53;;;23.31;51.10
54329;BME280;40710;51.120;13.136;2022-08-18T04:14:15;98812.47;;;23.35;50.97
54329;BME280;40710;51.120;13.136;2022-08-18T04:16:41;98810.75;;;23.42;50.71
54329;BME280;40710;51.120;13.136;2022-08-18T04:19:06;98814.16;;;23.36;51.03
54329;BME280;40710;51.120;13.136;2022-08-18T04:21:34;98822.06;;;23.29;51.15
54329;BME280;40710;51.120;13.136;2022-08-18T04:24:00;98813.81;;;23.39;50.92
54329;BME280;40710;51.120;13.136;2022-08-18T04:26:28;98811.59;;;23.43;51.12
54329;BME280;40710;51.120;13.136;2022-08-18T04:28:52;98819.47;;;23.44;51.07
54329;BME280;40710;51.120;13.136;2022-08-18T04:31:17;98815.31;;;23.33;51.38
54329;BME280;40710;51.120;13.136;2022-08-18T04:33:46;98818.81;;;23.65;50.62
54329;BME280;40710;51.120;13.136;2022-08-18T04:36:13;98821.91;;;23.54;51.07
54329;BME280;40710;51.120;13.136;2022-08-18T04:38:38;98816.69;;;23.75;50.43
54329;BME280;40710;51.120;13.136;2022-08-18T04:41:05;98815.69;;;23.76;50.28
54329;BME280;40710;51.120;13.136;2022-08-18T04:43:30;98825.72;;;23.59;50.90
54329;BME280;40710;51.120;13.136;2022-08-18T04:45:55;98830.84;;;23.46;51.45
54329;BME280;40710;51.120;13.136;2022-08-18T04:48:24;98829.75;;;23.32;51.99
54329;BME280;40710;51.120;13.136;2022-08-18T04:50:49;98830.13;;;23.21;52.33
54329;BME280;40710;51.120;13.136;2022-08-18T04:53:13;98834.38;;;23.15;52.90
54329;BME280;40710;51.120;13.136;2022-08-18T04:55:56;98837.97;;;23.31;52.39
54329;BME280;40710;51.120;13.136;2022-08-18T04:58:22;98836.13;;;23.54;51.94
54329;BME280;40710;51.120;13.136;2022-08-18T05:00:58;98838.13;;;23.60;51.81
54329;BME280;40710;51.120;13.136;2022-08-18T05:03:23;98836.00;;;23.79;51.39
54329;BME280;40710;51.120;13.136;2022-08-18T05:05:49;98838.50;;;23.81;51.14
54329;BME280;40710;51.120;13.136;2022-08-18T05:08:14;98838.78;;;23.86;51.15
54329;BME280;40710;51.120;13.136;2022-08-18T05:10:38;98836.72;;;23.96;50.72
54329;BME280;40710;51.120;13.136;2022-08-18T05:13:04;98846.72;;;24.02;50.70
54329;BME280;40710;51.120;13.136;2022-08-18T05:15:29;98851.69;;;24.28;50.15
54329;BME280;40710;51.120;13.136;2022-08-18T05:17:54;98849.09;;;24.58;49.86
54329;BME280;40710;51.120;13.136;2022-08-18T05:20:19;98834.91;;;24.64;49.51
54329;BME280;40710;51.120;13.136;2022-08-18T05:22:43;98838.31;;;24.73;49.25
54329;BME280;40710;51.120;13.136;2022-08-18T05:25:10;98844.06;;;24.70;49.43
54329;BME280;40710;51.120;13.136;2022-08-18T05:27:37;98844.63;;;24.80;49.33
54329;BME280;40710;51.120;13.136;2022-08-18T05:30:03;98838.22;;;24.96;49.05
54329;BME280;40710;51.120;13.136;2022-08-18T05:32:32;98841.47;;;24.91;49.12
54329;BME280;40710;51.120;13.136;2022-08-18T05:34:57;98837.75;;;25.07;48.75
54329;BME280;40710;51.120;13.136;2022-08-18T05:37:31;98839.03;;;25.12;48.06
54329;BME280;40710;51.120;13.136;2022-08-18T05:40:02;98844.09;;;25.36;47.97
54329;BME280;40710;51.120;13.136;2022-08-18T05:42:34;98837.53;;;25.60;47.19
54329;BME280;40710;51.120;13.136;2022-08-18T05:45:00;98839.44;;;25.66;47.27
54329;BME280;40710;51.120;13.136;2022-08-18T05:47:27;98838.28;;;25.54;47.42
54329;BME280;40710;51.120;13.136;2022-08-18T05:49:55;98842.69;;;25.98;46.85
54329;BME280;40710;51.120;13.136;2022-08-18T05:52:34;98847.22;;;25.76;47.38
54329;BME280;40710;51.120;13.136;2022-08-18T05:55:12;98836.06;;;26.01;46.99
54329;BME280;40710;51.120;13.136;2022-08-18T05:58:06;98821.97;;;27.32;44.51
54329;BME280;40710;51.120;13.136;2022-08-18T06:00:32;98835.94;;;26.37;46.42
54329;BME280;40710;51.120;13.136;2022-08-18T06:03:12;98834.56;;;26.20;46.72
54329;BME280;40710;51.120;13.136;2022-08-18T06:05:56;98835.56;;;26.40;46.27
54329;BME280;40710;51.120;13.136;2022-08-18T06:08:28;98833.22;;;27.56;45.42
54329;BME280;40710;51.120;13.136;2022-08-18T06:10:55;98834.50;;;26.63;45.14
54329;BME280;40710;51.120;13.136;2022-08-18T06:13:20;98833.88;;;26.68;45.53
54329;BME280;40710;51.120;13.136;2022-08-18T06:15:59;98848.84;;;26.49;45.64
54329;BME280;40710;51.120;13.136;2022-08-18T06:18:58;98844.50;;;26.76;44.57
54329;BME280;40710;51.120;13.136;2022-08-18T06:22:02;98843.94;;;26.87;44.59
54329;BME280;40710;51.120;13.136;2022-08-18T06:24:37;98846.25;;;26.90;44.41
54329;BME280;40710;51.120;13.136;2022-08-18T06:30:18;98855.63;;;27.01;44.85
54329;BME280;40710;51.120;13.136;2022-08-18T06:33:01;98854.31;;;26.90;44.89
54329;BME280;40710;51.120;13.136;2022-08-18T06:35:35;98857.88;;;26.97;44.59
54329;BME280;40710;51.120;13.136;2022-08-18T06:38:10;98857.50;;;27.01;45.51
54329;BME280;40710;51.120;13.136;2022-08-18T06:41:03;98845.91;;;27.13;45.28
54329;BME280;40710;51.120;13.136;2022-08-18T06:43:31;98849.66;;;27.19;46.38
54329;BME280;40710;51.120;13.136;2022-08-18T06:45:58;98847.56;;;27.08;46.12
54329;BME280;40710;51.120;13.136;2022-08-18T06:48:36;98848.44;;;27.22;45.68
54329;BME280;40710;51.120;13.136;2022-08-18T06:51:06;98842.25;;;27.28;46.37
54329;BME280;40710;51.120;13.136;2022-08-18T06:56:40;98843.47;;;27.25;44.99
54329;BME280;40710;51.120;13.136;2022-08-18T06:59:26;98841.16;;;27.70;45.00
54329;BME280;40710;51.120;13.136;2022-08-18T07:02:00;98840.69;;;27.53;44.89
54329;BME280;40710;51.120;13.136;2022-08-18T07:07:14;98850.25;;;27.56;45.56
54329;BME280;40710;51.120;13.136;2022-08-18T07:09:39;98856.13;;;27.86;43.63
54329;BME280;40710;51.120;13.136;2022-08-18T07:12:06;98862.75;;;27.77;44.60
54329;BME280;40710;51.120;13.136;2022-08-18T07:14:40;98863.28;;;27.39;44.82
54329;BME280;40710;51.120;13.136;2022-08-18T07:17:10;98881.03;;;27.20;45.75
54329;BME280;40710;51.120;13.136;2022-08-18T07:19:35;98879.84;;;28.31;43.17
54329;BME280;40710;51.120;13.136;2022-08-18T07:22:10;98884.75;;;27.19;44.33
54329;BME280;40710;51.120;13.136;2022-08-18T07:25:03;98887.78;;;27.44;44.57
54329;BME280;40710;51.120;13.136;2022-08-18T07:27:44;98890.13;;;27.61;44.32
54329;BME280;40710;51.120;13.136;2022-08-18T07:30:13;98887.66;;;27.72;44.15
54329;BME280;40710;51.120;13.136;2022-08-18T07:32:55;98883.16;;;28.13;44.19
54329;BME280;40710;51.120;13.136;2022-08-18T07:35:50;98870.50;;;28.34;42.48
54329;BME280;40710;51.120;13.136;2022-08-18T07:38:35;98875.25;;;28.52;42.66
54329;BME280;40710;51.120;13.136;2022-08-18T07:41:10;98876.09;;;28.59;44.24
54329;BME280;40710;51.120;13.136;2022-08-18T07:43:56;98868.78;;;28.79;42.28
54329;BME280;40710;51.120;13.136;2022-08-18T07:46:27;98882.78;;;28.63;42.36
54329;BME280;40710;51.120;13.136;2022-08-18T07:48:56;98883.81;;;28.55;42.45
54329;BME280;40710;51.120;13.136;2022-08-18T07:51:39;98880.81;;;29.03;41.77
54329;BME280;40710;51.120;13.136;2022-08-18T07:54:28;98874.00;;;29.39;41.15
54329;BME280;40710;51.120;13.136;2022-08-18T07:57:05;98871.00;;;29.02;41.30
54329;BME280;40710;51.120;13.136;2022-08-18T08:00:00;98879.13;;;29.16;41.44
54329;BME280;40710;51.120;13.136;2022-08-18T08:02:51;98885.75;;;29.27;43.07
54329;BME280;40710;51.120;13.136;2022-08-18T08:05:30;98879.31;;;29.14;41.64
54329;BME280;40710;51.120;13.136;2022-08-18T08:08:08;98875.31;;;29.30;42.07
54329;BME280;40710;51.120;13.136;2022-08-18T08:10:40;98867.28;;;29.87;40.67
54329;BME280;40710;51.120;13.136;2022-08-18T08:13:36;98859.03;;;30.76;39.18
54329;BME280;40710;51.120;13.136;2022-08-18T08:16:22;98860.78;;;30.20;39.81
54329;BME280;40710;51.120;13.136;2022-08-18T08:19:07;98854.41;;;30.33;40.70
54329;BME280;40710;51.120;13.136;2022-08-18T08:21:39;98846.63;;;30.68;38.66
54329;BME280;40710;51.120;13.136;2022-08-18T08:24:20;98856.28;;;31.20;38.32
54329;BME280;40710;51.120;13.136;2022-08-18T08:26:58;98855.03;;;31.53;37.34
54329;BME280;40710;51.120;13.136;2022-08-18T08:29:39;98860.06;;;32.21;35.91
54329;BME280;40710;51.120;13.136;2022-08-18T08:32:22;98860.44;;;32.60;35.81
54329;BME280;40710;51.120;13.136;2022-08-18T08:35:00;98866.47;;;32.39;35.70
54329;BME280;40710;51.120;13.136;2022-08-18T08:37:32;98865.66;;;32.74;34.92
54329;BME280;40710;51.120;13.136;2022-08-18T08:40:02;98858.31;;;33.39;34.13
54329;BME280;40710;51.120;13.136;2022-08-18T08:42:57;98853.16;;;34.51;31.79
54329;BME280;40710;51.120;13.136;2022-08-18T08:45:29;98868.63;;;33.37;33.74
54329;BME280;40710;51.120;13.136;2022-08-18T08:48:12;98870.97;;;33.74;33.52
54329;BME280;40710;51.120;13.136;2022-08-18T08:50:47;98867.06;;;33.69;32.90
54329;BME280;40710;51.120;13.136;2022-08-18T08:53:31;98852.19;;;35.01;31.74
54329;BME280;40710;51.120;13.136;2022-08-18T08:56:05;98859.44;;;34.17;32.24
54329;BME280;40710;51.120;13.136;2022-08-18T08:58:43;98864.13;;;33.59;32.70
54329;BME280;40710;51.120;13.136;2022-08-18T09:01:19;98857.94;;;34.09;31.71
54329;BME280;40710;51.120;13.136;2022-08-18T09:03:56;98851.09;;;33.61;33.62
54329;BME280;40710;51.120;13.136;2022-08-18T09:12:38;98872.13;;;31.72;35.90
54329;BME280;40710;51.120;13.136;2022-08-18T09:18:11;98862.22;;;32.67;34.63
54329;BME280;40710;51.120;13.136;2022-08-18T09:21:10;98860.91;;;32.93;34.26
54329;BME280;40710;51.120;13.136;2022-08-18T09:23:43;98862.94;;;32.74;34.56
54329;BME280;40710;51.120;13.136;2022-08-18T09:26:39;98858.06;;;32.29;35.01
54329;BME280;40710;51.120;13.136;2022-08-18T09:29:19;98850.50;;;32.66;35.09
54329;BME280;40710;51.120;13.136;2022-08-18T09:31:49;98850.41;;;31.95;35.63
54329;BME280;40710;51.120;13.136;2022-08-18T09:37:49;98851.63;;;31.08;37.47
54329;BME280;40710;51.120;13.136;2022-08-18T09:40:44;98854.19;;;31.94;36.18
54329;BME280;40710;51.120;13.136;2022-08-18T09:43:37;98858.25;;;31.43;36.68
54329;BME280;40710;51.120;13.136;2022-08-18T09:46:03;98861.81;;;30.69;38.44
54329;BME280;40710;51.120;13.136;2022-08-18T09:48:38;98850.81;;;31.38;37.85
54329;BME280;40710;51.120;13.136;2022-08-18T09:56:09;98849.25;;;31.61;37.37
54329;BME280;40710;51.120;13.136;2022-08-18T09:58:48;98841.75;;;31.44;37.06
54329;BME280;40710;51.120;13.136;2022-08-18T10:01:31;98835.84;;;31.47;37.16
54329;BME280;40710;51.120;13.136;2022-08-18T10:06:44;98834.63;;;31.62;37.40
54329;BME280;40710;51.120;13.136;2022-08-18T10:12:13;98826.81;;;31.54;37.02
54329;BME280;40710;51.120;13.136;2022-08-18T10:20:38;98848.69;;;31.40;37.27
54329;BME280;40710;51.120;13.136;2022-08-18T10:23:06;98848.50;;;31.23;37.57
54329;BME280;40710;51.120;13.136;2022-08-18T10:25:41;98847.34;;;31.50;37.22
54329;BME280;40710;51.120;13.136;2022-08-18T10:28:09;98850.47;;;31.65;36.83
54329;BME280;40710;51.120;13.136;2022-08-18T10:32:59;98851.50;;;31.34;37.25
54329;BME280;40710;51.120;13.136;2022-08-18T10:38:05;98844.91;;;31.11;37.13
54329;BME280;40710;51.120;13.136;2022-08-18T10:40:33;98840.22;;;31.48;37.25
54329;BME280;40710;51.120;13.136;2022-08-18T10:45:45;98835.53;;;31.86;36.55
54329;BME280;40710;51.120;13.136;2022-08-18T10:48:21;98838.28;;;31.98;35.84
54329;BME280;40710;51.120;13.136;2022-08-18T10:53:54;98836.44;;;31.80;36.51
54329;BME280;40710;51.120;13.136;2022-08-18T10:56:44;98855.63;;;31.36;37.32
54329;BME280;40710;51.120;13.136;2022-08-18T11:05:06;98847.81;;;31.28;37.36
54329;BME280;40710;51.120;13.136;2022-08-18T11:07:32;98850.44;;;31.35;37.45
54329;BME280;40710;51.120;13.136;2022-08-18T11:09:58;98845.41;;;31.38;36.98
54329;BME280;40710;51.120;13.136;2022-08-18T11:15:45;98840.28;;;31.30;37.58
54329;BME280;40710;51.120;13.136;2022-08-18T11:18:47;98837.53;;;31.79;36.54
54329;BME280;40710;51.120;13.136;2022-08-18T11:21:38;98840.38;;;31.84;37.03
54329;BME280;40710;51.120;13.136;2022-08-18T11:24:07;98839.88;;;31.75;37.42
54329;BME280;40710;51.120;13.136;2022-08-18T11:26:35;98859.31;;;30.93;38.80
54329;BME280;40710;51.120;13.136;2022-08-18T11:29:41;98861.06;;;31.55;38.07
54329;BME280;40710;51.120;13.136;2022-08-18T11:32:12;98872.81;;;31.48;37.62
54329;BME280;40710;51.120;13.136;2022-08-18T11:34:49;98870.81;;;31.74;37.06
54329;BME280;40710;51.120;13.136;2022-08-18T11:37:35;98880.19;;;30.49;39.51
54329;BME280;40710;51.120;13.136;2022-08-18T11:40:05;98889.41;;;30.41;39.54
54329;BME280;40710;51.120;13.136;2022-08-18T11:42:32;98878.84;;;30.58;39.20
54329;BME280;40710;51.120;13.136;2022-08-18T11:45:16;98890.19;;;30.23;40.17
54329;BME280;40710;51.120;13.136;2022-08-18T11:56:30;98906.84;;;29.95;41.33
54329;BME280;40710;51.120;13.136;2022-08-18T12:01:51;98910.41;;;29.50;42.56
54329;BME280;40710;51.120;13.136;2022-08-18T12:04:37;98907.00;;;29.23;43.01
54329;BME280;40710;51.120;13.136;2022-08-18T12:07:06;98902.97;;;29.39;43.01
54329;BME280;40710;51.120;13.136;2022-08-18T12:09:33;98915.31;;;29.08;43.72
54329;BME280;40710;51.120;13.136;2022-08-18T12:14:30;98897.06;;;29.49;42.98
54329;BME280;40710;51.120;13.136;2022-08-18T12:16:54;98896.94;;;29.37;42.89
54329;BME280;40710;51.120;13.136;2022-08-18T12:19:20;98911.59;;;29.02;43.64
54329;BME280;40710;51.120;13.136;2022-08-18T12:24:31;98906.59;;;29.06;43.42
54329;BME280;40710;51.120;13.136;2022-08-18T12:26:56;98903.88;;;29.26;43.46
54329;BME280;40710;51.120;13.136;2022-08-18T12:29:21;98891.06;;;29.40;42.94
54329;BME280;40710;51.120;13.136;2022-08-18T12:31:48;98885.34;;;29.23;43.54
54329;BME280;40710;51.120;13.136;2022-08-18T12:34:17;98878.22;;;29.35;43.71
54329;BME280;40710;51.120;13.136;2022-08-18T12:36:42;98878.06;;;29.10;44.43
54329;BME280;40710;51.120;13.136;2022-08-18T12:39:07;98876.13;;;29.31;43.82
54329;BME280;40710;51.120;13.136;2022-08-18T12:41:31;98876.47;;;29.48;43.65
54329;BME280;40710;51.120;13.136;2022-08-18T12:43:56;98876.75;;;29.71;43.76
54329;BME280;40710;51.120;13.136;2022-08-18T12:46:20;98868.44;;;29.66;43.70
54329;BME280;40710;51.120;13.136;2022-08-18T12:48:45;98873.59;;;29.74;43.82
54329;BME280;40710;51.120;13.136;2022-08-18T12:51:09;98861.06;;;30.44;42.46
54329;BME280;40710;51.120;13.136;2022-08-18T12:53:35;98874.47;;;30.57;42.56
54329;BME280;40710;51.120;13.136;2022-08-18T12:56:00;98867.03;;;30.89;41.94
54329;BME280;40710;51.120;13.136;2022-08-18T12:58:24;98865.06;;;30.78;41.85
54329;BME280;40710;51.120;13.136;2022-08-18T13:00:50;98860.31;;;30.92;41.52
54329;BME280;40710;51.120;13.136;2022-08-18T13:03:14;98858.75;;;31.03;41.20
54329;BME280;40710;51.120;13.136;2022-08-18T13:05:39;98849.66;;;30.79;42.00
54329;BME280;40710;51.120;13.136;2022-08-18T13:08:05;98854.66;;;30.31;42.71
54329;BME280;40710;51.120;13.136;2022-08-18T13:10:32;98855.00;;;29.91;43.66
54329;BME280;40710;51.120;13.136;2022-08-18T13:12:57;98850.94;;;30.01;43.21
54329;BME280;40710;51.120;13.136;2022-08-18T13:15:21;98849.09;;;29.63;44.45
54329;BME280;40710;51.120;13.136;2022-08-18T13:17:47;98838.13;;;29.89;43.78
54329;BME280;40710;51.120;13.136;2022-08-18T13:20:13;98836.75;;;30.05;43.20
54329;BME280;40710;51.120;13.136;2022-08-18T13:22:38;98825.94;;;30.24;42.98
54329;BME280;40710;51.120;13.136;2022-08-18T13:25:07;98827.69;;;29.93;44.76
54329;BME280;40710;51.120;13.136;2022-08-18T13:27:33;98814.19;;;29.86;44.25
54329;BME280;40710;51.120;13.136;2022-08-18T13:29:57;98814.94;;;30.19;43.70
54329;BME280;40710;51.120;13.136;2022-08-18T13:32:22;98823.16;;;30.37;44.35
54329;BME280;40710;51.120;13.136;2022-08-18T13:34:49;98823.47;;;30.66;43.88
54329;BME280;40710;51.120;13.136;2022-08-18T13:37:13;98822.88;;;31.19;42.81
54329;BME280;40710;51.120;13.136;2022-08-18T13:39:38;98815.13;;;31.53;41.71
54329;BME280;40710;51.120;13.136;2022-08-18T13:42:02;98822.78;;;31.98;41.23
54329;BME280;40710;51.120;13.136;2022-08-18T13:44:27;98820.25;;;31.73;40.95
54329;BME280;40710;51.120;13.136;2022-08-18T13:46:52;98817.16;;;31.58;41.13
54329;BME280;40710;51.120;13.136;2022-08-18T13:49:20;98808.31;;;31.74;41.13
54329;BME280;40710;51.120;13.136;2022-08-18T13:51:45;98808.28;;;31.62;41.70
54329;BME280;40710;51.120;13.136;2022-08-18T13:54:19;98819.19;;;31.44;42.11
54329;BME280;40710;51.120;13.136;2022-08-18T13:56:45;98820.25;;;31.43;41.40
54329;BME280;40710;51.120;13.136;2022-08-18T13:59:09;98811.31;;;31.24;41.68
54329;BME280;40710;51.120;13.136;2022-08-18T14:01:35;98816.28;;;31.27;41.14
54329;BME280;40710;51.120;13.136;2022-08-18T14:03:59;98824.38;;;31.15;41.48
54329;BME280;40710;51.120;13.136;2022-08-18T14:06:24;98814.38;;;31.16;41.58
54329;BME280;40710;51.120;13.136;2022-08-18T14:08:52;98817.84;;;30.86;41.63
54329;BME280;40710;51.120;13.136;2022-08-18T14:11:16;98814.22;;;30.73;42.20
54329;BME280;40710;51.120;13.136;2022-08-18T14:13:41;98798.22;;;30.84;42.38
54329;BME280;40710;51.120;13.136;2022-08-18T14:16:07;98793.66;;;31.33;41.66
54329;BME280;40710;51.120;13.136;2022-08-18T14:18:31;98784.91;;;31.61;40.85
54329;BME280;40710;51.120;13.136;2022-08-18T14:20:56;98787.28;;;31.39;41.24
54329;BME280;40710;51.120;13.136;2022-08-18T14:23:39;98798.81;;;31.23;41.21
54329;BME280;40710;51.120;13.136;2022-08-18T14:26:23;98798.31;;;31.14;40.91